Time;durP1;ratioP1;P1;durP2;ratioP2;P2;SDS_P1;SDS_P2;PMS_P1;PMS_P2;Temp;Humidity;BMP_temperature;BMP_pressure;BME280_temperature;BME280_humidity;BME280_pressure;Samples;Min_cycle;Max_cycle;Signal;HPM_P1;HPM_P2
2023/06/04 00:00:33;;;;;;;;;6.25;5.50;;;;;9.10;90.62;99870.66;6297425;20;1815465;-57
2023/06/04 00:03:00;;;;;;;;;7.00;4.50;;;;;9.06;90.30;99863.72;6314435;20;2751308;-59
2023/06/04 00:05:28;;;;;;;;;7.50;4.50;;;;;8.84;90.75;99867.53;6300279;20;1819163;-59
2023/06/04 00:07:57;;;;;;;;;5.25;4.75;;;;;8.87;91.30;99863.81;6331128;20;1824387;-58
2023/06/04 00:10:24;;;;;;;;;5.00;5.00;;;;;8.68;92.07;99856.72;6311165;20;2748305;-57
2023/06/04 00:12:51;;;;;;;;;2.50;2.50;;;;;8.73;91.52;99856.50;6280939;20;2754455;-55
2023/06/04 00:15:19;;;;;;;;;5.50;5.50;;;;;8.69;91.39;99862.94;6296585;20;1813928;-59
2023/06/04 00:17:47;;;;;;;;;5.50;5.00;;;;;8.63;92.27;99861.44;6315339;20;2745079;-59
2023/06/04 00:20:14;;;;;;;;;4.50;4.00;;;;;8.70;92.26;99859.34;6279037;20;2754465;-58
2023/06/04 00:22:41;;;;;;;;;6.00;5.00;;;;;8.71;92.11;99855.72;6280548;20;2741955;-59
2023/06/04 00:25:10;;;;;;;;;5.00;4.00;;;;;8.93;91.94;99859.03;6294925;20;1814930;-59
2023/06/04 00:27:38;;;;;;;;;5.25;3.25;;;;;9.20;91.10;99854.03;6328643;20;1812891;-59
2023/06/04 00:30:07;;;;;;;;;4.00;4.00;;;;;9.35;90.32;99848.81;6309467;20;2755528;-58
2023/06/04 00:32:34;;;;;;;;;6.00;5.00;;;;;9.42;88.24;99859.09;6282887;20;2745102;-58
2023/06/04 00:35:02;;;;;;;;;5.50;3.50;;;;;8.80;89.59;99849.91;6278564;20;2754441;-59
2023/06/04 00:37:29;;;;;;;;;5.00;5.00;;;;;8.52;91.02;99845.94;6279898;20;2748222;-58
2023/06/04 00:39:57;;;;;;;;;4.00;4.00;;;;;8.51;91.30;99846.91;6281638;20;2747259;-55
2023/06/04 00:42:24;;;;;;;;;6.50;4.00;;;;;9.11;90.59;99850.94;6312228;20;2756572;-57
2023/06/04 00:44:51;;;;;;;;;5.00;5.00;;;;;9.19;88.69;99849.63;6280357;20;2742980;-57
2023/06/04 00:47:20;;;;;;;;;7.50;6.00;;;;;9.00;89.92;99855.09;6296582;20;2738802;-59
2023/06/04 00:49:48;;;;;;;;;3.50;3.50;;;;;9.35;90.19;99855.03;6310276;20;2750332;-54
2023/06/04 00:52:16;;;;;;;;;4.00;4.00;;;;;9.37;90.10;99846.88;6278721;20;2748240;-59
2023/06/04 00:54:43;;;;;;;;;6.50;4.00;;;;;8.98;90.58;99846.25;6279514;20;2752428;-59
2023/06/04 00:57:10;;;;;;;;;6.00;6.00;;;;;8.79;92.14;99846.38;6280085;20;2745091;-59
2023/06/04 00:59:41;;;;;;;;;7.00;4.50;;;;;9.22;88.80;99843.25;6280129;20;2745120;-56
2023/06/04 01:02:14;;;;;;;;;2.00;0.50;;;;;8.98;89.17;99846.25;6299669;20;1812863;-59
2023/06/04 01:05:09;;;;;;;;;6.00;6.00;;;;;9.18;88.25;99842.50;6303256;20;2747161;-57
2023/06/04 01:07:38;;;;;;;;;5.50;5.50;;;;;8.98;89.87;99840.06;6279022;20;2740915;-58
2023/06/04 01:10:06;;;;;;;;;4.50;4.50;;;;;8.93;90.32;99840.28;6305516;20;2746093;-58
2023/06/04 01:12:33;;;;;;;;;6.00;4.00;;;;;9.49;88.35;99845.38;6277925;20;2747188;-59
2023/06/04 01:15:01;;;;;;;;;7.50;6.00;;;;;9.23;88.58;99850.31;6298133;20;1813946;-57
2023/06/04 01:17:40;;;;;;;;;5.50;5.50;;;;;9.66;88.27;99858.69;6313526;20;2739850;-58
2023/06/04 01:20:48;;;;;;;;;4.75;4.75;;;;;9.30;89.07;99850.88;6326483;20;1813953;-58
2023/06/04 01:23:24;;;;;;;;;7.00;6.00;;;;;9.29;89.45;99849.13;6306560;20;2727519;-59
2023/06/04 01:25:52;;;;;;;;;4.00;4.00;;;;;8.95;90.45;99846.44;6307641;20;2756559;-58
2023/06/04 01:28:21;;;;;;;;;4.00;4.00;;;;;8.86;90.93;99848.72;6277681;20;2751351;-58
2023/06/04 01:30:50;;;;;;;;;4.00;4.00;;;;;8.77;90.67;99844.72;6278435;20;2751341;-58
2023/06/04 01:33:20;;;;;;;;;7.25;6.00;;;;;8.69;91.97;99849.56;6297891;20;1819139;-58
2023/06/04 01:35:49;;;;;;;;;5.75;5.75;;;;;9.06;90.73;99847.66;6327276;20;1808789;-58
2023/06/04 01:38:17;;;;;;;;;3.50;3.50;;;;;9.05;91.12;99843.25;6312407;20;2756655;-58
2023/06/04 01:40:46;;;;;;;;;8.00;6.00;;;;;9.27;90.98;99841.19;6283745;20;2745080;-58
2023/06/04 01:43:14;;;;;;;;;5.00;5.00;;;;;8.90;90.66;99826.16;6286363;20;2748252;-58
2023/06/04 01:45:41;;;;;;;;;6.00;5.00;;;;;8.37;90.74;99825.28;6316258;20;2742149;-53
2023/06/04 01:48:09;;;;;;;;;8.00;5.00;;;;;8.11;91.15;99824.78;6317368;20;2742134;-58
2023/06/04 01:50:37;;;;;;;;;4.00;4.00;;;;;8.07;92.16;99823.19;6333354;20;1823439;-58
2023/06/04 01:53:04;;;;;;;;;11.00;6.00;;;;;8.12;91.77;99834.53;6315437;20;2759686;-59
2023/06/04 01:55:33;;;;;;;;;4.25;4.25;;;;;8.63;90.99;99828.47;6303005;20;1817047;-58
2023/06/04 01:58:01;;;;;;;;;5.00;5.00;;;;;8.79;89.89;99846.38;6315030;20;2748241;-58
2023/06/04 02:00:29;;;;;;;;;5.00;5.00;;;;;9.02;89.97;99844.28;6298713;20;1812527;-58
2023/06/04 02:02:57;;;;;;;;;4.50;4.50;;;;;8.89;91.45;99851.22;6312708;20;2752473;-56
2023/06/04 02:05:24;;;;;;;;;6.00;6.00;;;;;9.13;91.22;99855.28;6283020;20;2746126;-58
2023/06/04 02:07:52;;;;;;;;;6.00;6.00;;;;;9.34;90.81;99855.94;6283509;20;2741957;-58
2023/06/04 02:10:20;;;;;;;;;5.50;5.00;;;;;9.48;90.46;99855.22;6282668;20;2748170;-58
2023/06/04 02:12:59;;;;;;;;;5.00;5.00;;;;;9.43;89.84;99860.84;6285781;20;2741353;-58
2023/06/04 02:15:27;;;;;;;;;7.50;6.00;;;;;9.34;90.06;99864.00;6319188;20;2730526;-57
2023/06/04 02:18:02;;;;;;;;;7.75;6.75;;;;;9.14;90.73;99866.88;6335463;20;1809201;-57
2023/06/04 02:20:30;;;;;;;;;7.50;5.00;;;;;9.00;92.03;99852.41;6313176;20;2748380;-58
2023/06/04 02:22:57;;;;;;;;;5.00;5.00;;;;;8.73;91.67;99861.84;6285454;20;2748620;-58
2023/06/04 02:25:24;;;;;;;;;6.50;4.00;;;;;8.32;92.68;99856.72;6283815;20;2741968;-58
2023/06/04 02:27:52;;;;;;;;;8.00;6.00;;;;;8.13;92.26;99852.28;6285420;20;2744103;-58
2023/06/04 02:30:20;;;;;;;;;8.00;6.50;;;;;7.95;92.09;99846.97;6299317;20;1806725;-59
2023/06/04 02:32:50;;;;;;;;;8.25;7.00;;;;;7.74;92.52;99843.53;6329953;20;1814945;-58
2023/06/04 02:35:20;;;;;;;;;8.00;5.00;;;;;7.87;93.65;99847.34;6316535;20;2742008;-58
2023/06/04 02:37:51;;;;;;;;;6.00;5.00;;;;;8.17;93.57;99841.47;6311729;20;2745274;-59
2023/06/04 02:40:21;;;;;;;;;242.75;178.50;;;;;8.53;91.19;99845.03;6313485;20;4488793;-58
2023/06/04 02:42:53;;;;;;;;;168.25;129.00;;;;;8.61;88.96;99846.41;6279364;20;4470032;-58
2023/06/04 02:45:24;;;;;;;;;63.50;42.50;;;;;8.44;89.69;99845.47;6272883;20;2483635;-59
2023/06/04 02:47:53;;;;;;;;;48.33;39.00;;;;;8.32;90.13;99848.72;6277435;20;3600268;-56
2023/06/04 02:50:22;;;;;;;;;34.00;30.50;;;;;7.99;91.76;99845.91;6311683;20;2864895;-59
2023/06/04 02:52:51;;;;;;;;;85.33;78.00;;;;;7.83;92.52;99845.78;6278385;20;3653396;-55
2023/06/04 02:55:19;;;;;;;;;47.00;37.00;;;;;7.69;93.28;99843.75;6312619;20;2853371;-58
2023/06/04 02:57:48;;;;;;;;;10.00;9.60;;;;;8.13;91.70;99851.44;6302474;20;2788803;-57
2023/06/04 03:00:17;;;;;;;;;13.67;12.00;;;;;8.34;90.87;99850.38;6277070;20;2800338;-56
2023/06/04 03:02:47;;;;;;;;;8.00;8.00;;;;;8.21;90.66;99851.06;6315576;20;2741980;-57
2023/06/04 03:05:17;;;;;;;;;10.00;8.00;;;;;8.19;91.60;99856.50;6279893;20;2758714;-58
2023/06/04 03:07:47;;;;;;;;;8.50;7.50;;;;;8.23;91.80;99858.06;6301002;20;1815025;-58
2023/06/04 03:10:15;;;;;;;;;7.00;7.00;;;;;8.39;92.20;99858.22;6312895;20;2740000;-58
2023/06/04 03:12:43;;;;;;;;;8.00;8.00;;;;;8.89;90.52;99862.78;6310989;20;2739979;-56
2023/06/04 03:15:12;;;;;;;;;16.33;16.33;;;;;8.97;89.29;99862.41;6283378;20;3554421;-56
2023/06/04 03:17:41;;;;;;;;;21.00;17.00;;;;;8.84;88.86;99864.84;6310797;20;2500355;-58
2023/06/04 03:20:09;;;;;;;;;7.00;7.00;;;;;8.92;89.10;99877.84;6282996;20;2731531;-58
2023/06/04 03:22:36;;;;;;;;;7.00;5.00;;;;;9.47;86.79;99871.38;6312413;20;2750355;-57
2023/06/04 03:25:05;;;;;;;;;5.75;3.25;;;;;9.50;86.56;99877.44;6295880;20;1820578;-57
2023/06/04 03:27:33;;;;;;;;;5.50;5.00;;;;;9.33;87.14;99872.13;6329367;20;1814956;-58
2023/06/04 03:30:01;;;;;;;;;5.00;4.00;;;;;9.35;87.50;99876.47;6311477;20;2744200;-58
2023/06/04 03:32:29;;;;;;;;;7.00;5.00;;;;;9.18;89.43;99871.13;6284968;20;2745070;-58
2023/06/04 03:34:57;;;;;;;;;4.75;4.75;;;;;9.56;88.06;99879.78;6296885;20;1812003;-58
2023/06/04 03:37:25;;;;;;;;;8.00;5.00;;;;;9.47;88.13;99884.78;6313939;20;2750279;-59
2023/06/04 03:39:53;;;;;;;;;7.50;6.00;;;;;9.37;89.04;99874.56;6283318;20;2743022;-56
2023/06/04 03:42:20;;;;;;;;;6.00;6.00;;;;;9.52;88.94;99874.69;6283542;20;2734695;-58
2023/06/04 03:44:47;;;;;;;;;7.00;6.00;;;;;9.29;89.36;99876.75;6314617;20;2742116;-58
2023/06/04 03:47:14;;;;;;;;;5.50;5.50;;;;;9.48;88.38;99870.41;6314103;20;2742999;-58
2023/06/04 03:49:42;;;;;;;;;9.00;5.00;;;;;9.49;88.17;99873.03;6314814;20;2722161;-57
2023/06/04 03:52:09;;;;;;;;;5.00;5.00;;;;;9.82;86.64;99878.38;6315700;20;2742955;-59
2023/06/04 03:54:36;;;;;;;;;6.00;6.00;;;;;9.80;85.44;99879.41;6310476;20;2739998;-59
2023/06/04 03:57:04;;;;;;;;;4.00;3.00;;;;;9.91;84.38;99886.84;6284162;20;2744001;-58
2023/06/04 03:59:31;;;;;;;;;4.00;4.00;;;;;10.02;84.46;99892.47;6314230;20;2756586;-57
2023/06/04 04:01:58;;;;;;;;;5.00;5.00;;;;;10.05;83.87;99900.34;6281492;20;2742986;-57
2023/06/04 04:04:27;;;;;;;;;4.00;4.00;;;;;10.27;84.11;99897.34;6328164;20;1814984;-59
2023/06/04 04:06:54;;;;;;;;;5.50;4.50;;;;;10.38;83.89;99897.63;6314658;20;2752374;-59
2023/06/04 04:09:21;;;;;;;;;8.00;4.50;;;;;10.76;80.56;99900.72;6277903;20;2750670;-59
2023/06/04 04:11:49;;;;;;;;;4.50;4.50;;;;;10.95;79.71;99907.72;6279652;20;2750425;-59
2023/06/04 04:14:16;;;;;;;;;7.50;4.00;;;;;11.08;80.66;99900.63;6281530;20;2754478;-58
2023/06/04 04:16:43;;;;;;;;;3.00;3.00;;;;;11.23;79.38;99908.75;6284124;20;2750331;-58
2023/06/04 04:19:11;;;;;;;;;5.00;4.00;;;;;11.56;78.06;99904.00;6282558;20;2741966;-56
2023/06/04 04:21:39;;;;;;;;;4.50;3.25;;;;;11.75;76.11;99905.53;6297999;20;1810839;-59
2023/06/04 04:24:06;;;;;;;;;6.00;3.00;;;;;11.83;76.39;99897.84;6311365;20;2746235;-59
2023/06/04 04:26:34;;;;;;;;;4.00;4.00;;;;;11.76;78.49;99900.03;6277885;20;2753378;-57
2023/06/04 04:29:08;;;;;;;;;5.40;4.00;;;;;12.23;77.41;99906.06;6323188;20;2485838;-59
2023/06/04 04:31:36;;;;;;;;;6.00;5.00;;;;;12.58;74.80;99910.97;6313330;20;2747214;-59
2023/06/04 04:34:08;;;;;;;;;4.50;4.50;;;;;13.14;71.78;99907.16;6277132;20;2756542;-58
2023/06/04 04:36:36;;;;;;;;;3.00;3.00;;;;;14.38;67.31;99908.25;6281269;20;2737833;-56
2023/06/04 04:39:03;;;;;;;;;5.00;3.00;;;;;14.28;65.78;99909.91;6282349;20;2753453;-59
2023/06/04 04:41:30;;;;;;;;;3.00;3.00;;;;;15.87;58.64;99907.69;6283194;20;2751482;-59
2023/06/04 04:44:05;;;;;;;;;3.00;3.00;;;;;14.15;66.70;99907.25;6283641;20;2739916;-59
2023/06/04 04:46:32;;;;;;;;;3.00;3.00;;;;;13.90;68.46;99901.88;6279926;20;2737803;-58
2023/06/04 04:48:59;;;;;;;;;5.00;3.00;;;;;13.74;69.38;99896.72;6280030;20;2754439;-59
2023/06/04 04:51:27;;;;;;;;;4.00;3.00;;;;;13.91;69.13;99903.63;6282308;20;2744137;-59
2023/06/04 04:53:54;;;;;;;;;3.00;3.00;;;;;14.13;67.32;99905.63;6283564;20;2735704;-59
2023/06/04 04:56:22;;;;;;;;;1.00;1.00;;;;;15.08;64.06;99912.91;6281206;20;2746133;-58
2023/06/04 04:58:49;;;;;;;;;3.00;3.00;;;;;14.57;63.37;99909.63;6278708;20;2748171;-59
2023/06/04 05:01:16;;;;;;;;;5.00;3.00;;;;;16.22;59.58;99917.53;6280661;20;2750329;-59
2023/06/04 05:03:44;;;;;;;;;4.50;4.00;;;;;15.34;62.40;99928.97;6282565;20;2739861;-55
2023/06/04 05:06:11;;;;;;;;;4.00;4.00;;;;;15.56;62.24;99931.75;6280593;20;2749264;-59
2023/06/04 05:08:39;;;;;;;;;1.00;1.00;;;;;15.35;62.16;99936.13;6298000;20;1798804;-58
2023/06/04 05:11:07;;;;;;;;;2.00;2.00;;;;;15.16;63.59;99933.97;6311830;20;2754598;-58
2023/06/04 05:13:36;;;;;;;;;1.00;1.00;;;;;15.32;59.33;99942.66;6280929;20;2748338;-57
2023/06/04 05:16:06;;;;;;;;;1.00;1.00;;;;;15.53;57.98;99945.53;6280717;20;2752354;-59
2023/06/04 05:18:40;;;;;;;;;2.00;2.00;;;;;15.75;56.50;99944.72;6287720;20;2739931;-59
2023/06/04 05:21:07;;;;;;;;;3.00;2.50;;;;;15.97;57.46;99948.44;6279269;20;2744079;-59
2023/06/04 05:23:37;;;;;;;;;3.50;2.00;;;;;16.49;54.94;99954.19;6283317;20;2733575;-58
2023/06/04 05:26:04;;;;;;;;;3.00;3.00;;;;;16.27;53.79;99965.91;6278694;20;2756543;-60
2023/06/04 05:28:35;;;;;;;;;3.00;3.00;;;;;16.40;56.08;99955.78;6284801;20;2756561;-59
2023/06/04 05:31:02;;;;;;;;;2.00;2.00;;;;;16.64;53.11;99958.34;6284055;20;2744031;-59
2023/06/04 05:33:31;;;;;;;;;3.50;2.50;;;;;16.81;52.73;99965.97;6284715;20;2737866;-59
2023/06/04 05:35:58;;;;;;;;;3.00;3.00;;;;;16.73;53.89;99970.28;6281623;20;2748230;-58
2023/06/04 05:38:26;;;;;;;;;4.00;3.00;;;;;16.74;52.62;99964.72;6284916;20;2756634;-56
2023/06/04 05:40:55;;;;;;;;;4.50;3.00;;;;;16.98;51.22;99972.72;6285190;20;2741116;-58
2023/06/04 05:43:23;;;;;;;;;2.00;2.00;;;;;16.99;50.76;99973.59;6282100;20;2733633;-59
2023/06/04 05:45:51;;;;;;;;;3.00;3.00;;;;;17.05;51.38;99973.91;6282965;20;2738823;-59
2023/06/04 05:48:19;;;;;;;;;2.00;2.00;;;;;17.37;49.65;99980.31;6285135;20;2752507;-59
2023/06/04 05:50:47;;;;;;;;;2.00;2.00;;;;;17.29;49.73;99976.41;6286980;20;2752384;-58
2023/06/04 05:53:15;;;;;;;;;2.00;2.00;;;;;17.69;50.54;99983.88;6276192;20;2754448;-59
2023/06/04 05:55:42;;;;;;;;;3.50;3.00;;;;;17.90;49.43;99983.84;6283618;20;2745091;-58
2023/06/04 05:58:09;;;;;;;;;5.00;3.00;;;;;18.13;50.11;99981.84;6277598;20;2751552;-58
2023/06/04 06:00:36;;;;;;;;;6.00;4.00;;;;;18.21;49.73;99984.72;6273563;20;2756693;-58
2023/06/04 06:03:06;;;;;;;;;2.00;2.00;;;;;18.47;49.95;99976.13;6282812;20;2748185;-59
2023/06/04 06:05:33;;;;;;;;;5.00;2.50;;;;;18.82;49.17;99977.53;6279692;20;2749246;-58
2023/06/04 06:08:02;;;;;;;;;3.00;3.00;;;;;18.88;48.44;99982.44;6278726;20;2745212;-59
2023/06/04 06:10:29;;;;;;;;;4.00;2.50;;;;;19.01;49.00;99988.47;6277656;20;2754489;-59
2023/06/04 06:12:57;;;;;;;;;3.00;2.00;;;;;18.70;47.35;99978.63;6283567;20;2744606;-58
2023/06/04 06:15:24;;;;;;;;;2.00;2.00;;;;;19.10;47.34;99985.88;6282798;20;2720045;-58
2023/06/04 06:17:51;;;;;;;;;3.50;2.00;;;;;19.15;47.46;99980.88;6280799;20;2755718;-58
2023/06/04 06:20:19;;;;;;;;;4.00;1.50;;;;;19.33;46.53;99981.03;6272193;20;2739940;-58
2023/06/04 06:22:46;;;;;;;;;2.00;2.00;;;;;19.85;44.97;99974.25;6279591;20;2744068;-58
2023/06/04 06:25:15;;;;;;;;;1.00;1.00;;;;;19.95;46.33;99983.25;6274886;20;2739870;-57
2023/06/04 06:27:44;;;;;;;;;2.67;1.67;;;;;20.33;44.63;99989.59;6303536;20;2754829;-58
2023/06/04 06:30:14;;;;;;;;;1.60;1.60;;;;;20.03;43.99;99987.97;6338679;20;2756545;-59
2023/06/04 06:32:43;;;;;;;;;2.00;2.00;;;;;20.18;42.39;99985.63;6310020;20;2753442;-57
2023/06/04 06:35:11;;;;;;;;;2.67;2.67;;;;;20.43;41.72;99981.34;6311753;20;2735778;-58
2023/06/04 06:37:41;;;;;;;;;2.00;2.00;;;;;21.00;41.48;99983.94;6313976;20;2740940;-57
2023/06/04 06:40:10;;;;;;;;;3.33;2.00;;;;;21.23;40.62;99984.34;6304351;20;2753394;-59
2023/06/04 06:42:38;;;;;;;;;3.33;2.00;;;;;21.09;39.12;99972.09;6327558;20;1904318;-60
2023/06/04 06:45:07;;;;;;;;;1.67;1.67;;;;;21.47;40.87;99975.56;6277758;20;2752365;-59
2023/06/04 06:47:35;;;;;;;;;3.00;2.00;;;;;21.64;39.60;99971.94;6309228;20;2740315;-60
2023/06/04 06:50:03;;;;;;;;;2.00;2.00;;;;;21.55;39.68;99977.50;6314925;20;2727594;-59
2023/06/04 06:52:31;;;;;;;;;2.33;2.33;;;;;21.76;39.41;99977.16;6311798;20;2733634;-60
2023/06/04 06:55:04;;;;;;;;;2.60;2.60;;;;;22.26;39.64;99979.22;6337787;20;2734659;-59
2023/06/04 06:57:33;;;;;;;;;2.00;2.00;;;;;22.41;38.77;99980.31;6341844;20;2752515;-59
2023/06/04 07:00:03;;;;;;;;;3.00;3.00;;;;;22.38;37.46;99980.66;6309595;20;2743108;-59
2023/06/04 07:02:32;;;;;;;;;1.00;1.00;;;;;22.02;39.24;99986.22;6338978;20;2744095;-60
2023/06/04 07:05:02;;;;;;;;;2.60;2.60;;;;;22.76;37.92;99994.84;6329186;20;2743131;-60
2023/06/04 07:07:31;;;;;;;;;3.00;2.00;;;;;23.11;37.09;99998.38;6302335;20;2744091;-58
2023/06/04 07:10:00;;;;;;;;;2.40;1.00;;;;;22.58;36.68;99997.66;6332893;20;2751298;-60
2023/06/04 07:12:30;;;;;;;;;2.20;0.80;;;;;22.46;36.84;99999.84;6305138;20;2755517;-59
2023/06/04 07:14:59;;;;;;;;;2.40;2.40;;;;;22.77;37.89;99996.53;6339627;20;2752389;-60
2023/06/04 07:17:28;;;;;;;;;2.20;2.20;;;;;22.77;38.73;100004.75;6308202;20;2730541;-60
2023/06/04 07:19:57;;;;;;;;;5.00;2.00;;;;;23.35;36.53;100009.38;6338088;20;2742044;-60
2023/06/04 07:22:26;;;;;;;;;3.40;2.20;;;;;24.03;35.70;100010.09;6341934;20;2741949;-60
2023/06/04 07:24:56;;;;;;;;;2.80;2.80;;;;;23.43;36.45;100005.78;6342287;20;2735734;-60
2023/06/04 07:27:26;;;;;;;;;1.20;1.20;;;;;23.63;36.05;100009.06;6337666;20;2738897;-61
2023/06/04 07:29:55;;;;;;;;;2.00;2.00;;;;;23.25;35.77;100016.03;6340346;20;2744029;-60
2023/06/04 07:32:24;;;;;;;;;2.00;1.00;;;;;23.17;35.61;100014.13;6340140;20;2751351;-60
2023/06/04 07:34:52;;;;;;;;;2.67;1.67;;;;;23.60;34.80;100009.41;6319913;20;2750311;-60
2023/06/04 07:37:21;;;;;;;;;1.60;1.60;;;;;23.76;34.28;100012.19;6340309;20;2739900;-60
2023/06/04 07:39:50;;;;;;;;;2.60;2.60;;;;;23.78;35.00;100015.63;6339694;20;2754516;-60
2023/06/04 07:42:19;;;;;;;;;3.50;3.00;;;;;24.35;33.03;100016.56;6308469;20;2053529;-60
2023/06/04 07:44:48;;;;;;;;;7.20;2.60;;;;;24.18;32.63;100023.97;6339237;20;2756672;-58
2023/06/04 07:47:17;;;;;;;;;1.40;1.40;;;;;24.00;33.93;100026.91;6306134;20;2742039;-60
2023/06/04 07:49:46;;;;;;;;;2.80;2.00;;;;;23.74;34.14;100027.94;6340598;20;2746145;-60
2023/06/04 07:52:30;;;;;;;;;1.60;1.60;;;;;24.10;34.45;100022.97;6308721;20;2749218;-60
2023/06/04 07:55:00;;;;;;;;;2.60;2.60;;;;;24.22;33.54;100037.16;6306521;20;2749242;-60
2023/06/04 07:57:29;;;;;;;;;3.40;2.60;;;;;24.23;32.00;100032.56;6338617;20;2752373;-60
2023/06/04 07:59:59;;;;;;;;;1.00;1.00;;;;;24.17;32.19;100039.59;6306916;20;2750311;-60
2023/06/04 08:02:28;;;;;;;;;1.00;1.00;;;;;24.01;30.85;100036.84;6307128;20;2729520;-60
2023/06/04 08:04:57;;;;;;;;;0.80;0.80;;;;;24.49;31.59;100029.59;6338545;20;2739894;-61
2023/06/04 08:07:26;;;;;;;;;3.00;2.00;;;;;24.12;31.44;100031.03;6307640;20;2752373;-60
2023/06/04 08:09:56;;;;;;;;;2.00;2.00;;;;;24.88;31.72;100032.38;6305075;20;2744183;-60
2023/06/04 08:12:25;;;;;;;;;2.20;2.00;;;;;25.25;31.57;100028.09;6304382;20;2741982;-60
2023/06/04 08:14:56;;;;;;;;;2.67;1.33;;;;;24.85;31.78;100027.22;6280453;20;2750403;-60
2023/06/04 08:17:25;;;;;;;;;3.20;2.00;;;;;25.67;31.78;100020.38;6336938;20;2752378;-60
2023/06/04 08:19:56;;;;;;;;;3.00;1.60;;;;;25.18;33.08;100027.09;6309590;20;2746093;-61
2023/06/04 08:22:25;;;;;;;;;3.40;3.00;;;;;24.86;33.87;100036.34;6311799;20;2739932;-61
2023/06/04 08:24:55;;;;;;;;;1.00;1.00;;;;;24.68;33.32;100033.81;6340691;20;2731644;-61
2023/06/04 08:27:24;;;;;;;;;0.60;0.60;;;;;24.90;34.72;100035.78;6341086;20;2735712;-60
2023/06/04 08:29:53;;;;;;;;;1.00;1.00;;;;;25.15;32.74;100044.78;6337276;20;2748749;-60
2023/06/04 08:32:22;;;;;;;;;2.40;1.20;;;;;24.42;33.21;100037.63;6342178;20;2754457;-61
2023/06/04 08:34:52;;;;;;;;;1.00;1.00;;;;;23.99;32.86;100041.69;6310584;20;2722241;-59
2023/06/04 08:37:21;;;;;;;;;2.00;2.00;;;;;24.80;32.04;100043.38;6339451;20;2748196;-60
2023/06/04 08:39:50;;;;;;;;;1.80;1.20;;;;;24.81;32.23;100053.34;6306826;20;2737869;-60
2023/06/04 08:42:33;;;;;;;;;0.00;0.00;;;;;24.25;31.22;100047.81;6343309;20;2729447;-60
2023/06/04 08:45:02;;;;;;;;;1.67;1.67;;;;;24.08;31.92;100038.72;6314228;20;2741983;-60
2023/06/04 08:47:35;;;;;;;;;3.00;3.00;;;;;24.19;32.77;100040.25;6333602;20;2741962;-60
2023/06/04 08:50:09;;;;;;;;;0.00;0.00;;;;;24.90;32.18;100034.94;6334354;20;2733651;-60
2023/06/04 08:52:40;;;;;;;;;3.80;2.40;;;;;24.72;31.44;100038.78;6333663;20;2738928;-61
2023/06/04 08:55:16;;;;;;;;;0.67;0.00;;;;;23.94;33.06;100035.84;6315330;20;2724287;-60
2023/06/04 08:57:45;;;;;;;;;1.40;1.40;;;;;24.46;32.62;100040.91;6338622;20;2735701;-60
2023/06/04 09:00:16;;;;;;;;;1.80;1.80;;;;;24.71;33.67;100034.31;6334138;20;2753480;-61
2023/06/04 09:02:47;;;;;;;;;1.60;1.60;;;;;24.82;32.68;100043.22;6305042;20;2747219;-60
2023/06/04 09:05:21;;;;;;;;;1.60;1.60;;;;;24.53;33.50;100033.69;6305437;20;2741939;-60
2023/06/04 09:07:56;;;;;;;;;4.00;2.40;;;;;24.33;33.14;100033.22;6306595;20;2745131;-60
2023/06/04 09:10:26;;;;;;;;;2.00;2.00;;;;;24.84;33.71;100032.91;6278736;20;2751497;-60
2023/06/04 09:13:00;;;;;;;;;4.40;2.20;;;;;26.00;31.97;100038.34;6339734;20;2755493;-60
2023/06/04 09:15:29;;;;;;;;;0.80;0.80;;;;;25.09;31.45;100026.25;6305565;20;2730499;-60
2023/06/04 09:17:58;;;;;;;;;1.00;1.00;;;;;25.07;31.54;100028.31;6340332;20;2737887;-60
2023/06/04 09:20:28;;;;;;;;;1.60;1.40;;;;;24.30;31.88;100028.94;6330914;20;2744126;-61
2023/06/04 09:22:58;;;;;;;;;3.00;2.80;;;;;25.31;31.75;100030.09;6334385;20;2748203;-60
2023/06/04 09:25:27;;;;;;;;;3.00;2.00;;;;;25.65;31.48;100033.50;6299942;20;2756654;-60
2023/06/04 09:28:06;;;;;;;;;1.00;1.00;;;;;25.64;30.52;100029.84;6299943;20;2750399;-60
2023/06/04 09:30:35;;;;;;;;;2.00;1.40;;;;;24.53;31.01;100030.94;6302496;20;2748222;-61
2023/06/04 09:33:12;;;;;;;;;1.00;1.00;;;;;25.13;31.80;100041.34;6301442;20;2746116;-60
2023/06/04 09:35:41;;;;;;;;;4.00;2.00;;;;;25.34;30.63;100023.38;6305850;20;2749263;-60
2023/06/04 09:38:10;;;;;;;;;2.20;2.20;;;;;24.90;30.99;100029.44;6339844;20;2735808;-60
2023/06/04 09:40:39;;;;;;;;;5.20;2.80;;;;;25.81;29.70;100027.84;6340296;20;2751361;-60
2023/06/04 09:43:11;;;;;;;;;2.60;2.60;;;;;25.78;30.42;100033.72;6305764;20;2737780;-60
2023/06/04 09:45:40;;;;;;;;;3.20;3.20;;;;;25.78;30.25;100039.22;6306529;20;2744026;-60
2023/06/04 09:48:23;;;;;;;;;1.00;1.00;;;;;26.34;29.06;100028.75;6303916;20;2744583;-60
2023/06/04 09:50:52;;;;;;;;;1.20;1.20;;;;;26.30;28.11;100026.53;6303636;20;2748209;-61
2023/06/04 09:53:25;;;;;;;;;2.00;2.00;;;;;26.34;29.35;100031.50;6283242;20;2755485;-60
2023/06/04 09:55:59;;;;;;;;;2.00;2.00;;;;;25.77;29.61;100023.75;6330163;20;2736887;-60
2023/06/04 09:58:29;;;;;;;;;3.80;3.60;;;;;25.03;30.92;100024.22;6325191;20;2748375;-60
2023/06/04 10:01:01;;;;;;;;;2.80;2.80;;;;;24.15;31.93;100027.94;6289785;20;2748269;-60
2023/06/04 10:03:36;;;;;;;;;2.00;2.00;;;;;24.35;30.83;100033.03;6303236;20;2739890;-60
2023/06/04 10:06:06;;;;;;;;;1.40;1.00;;;;;24.52;31.90;100032.84;6331388;20;2753409;-60
2023/06/04 10:08:35;;;;;;;;;2.50;2.50;;;;;23.89;32.93;100036.34;6307541;20;2770080;-60
2023/06/04 10:11:05;;;;;;;;;2.80;2.80;;;;;24.21;33.73;100031.84;6343742;20;2743143;-60
2023/06/04 10:13:51;;;;;;;;;3.00;2.00;;;;;23.51;34.54;100032.34;6287030;20;2744033;-60
2023/06/04 10:16:23;;;;;;;;;1.60;0.60;;;;;23.51;35.01;100026.88;6343901;20;2728482;-60
2023/06/04 10:19:05;;;;;;;;;2.20;2.20;;;;;23.59;34.63;100037.84;6341813;20;2739879;-61
2023/06/04 10:21:35;;;;;;;;;3.80;3.60;;;;;23.47;34.89;100036.47;6336718;20;2756511;-61
2023/06/04 10:24:05;;;;;;;;;2.40;2.40;;;;;23.62;34.51;100035.63;6309023;20;2746112;-61
2023/06/04 10:26:35;;;;;;;;;1.80;1.80;;;;;23.14;35.03;100030.91;6343391;20;2747297;-60
2023/06/04 10:29:06;;;;;;;;;1.20;1.20;;;;;23.10;35.34;100029.56;6305672;20;2754440;-60
2023/06/04 10:31:37;;;;;;;;;3.40;3.40;;;;;23.17;35.04;100030.56;6309716;20;2749255;-60
2023/06/04 10:34:07;;;;;;;;;1.40;1.40;;;;;23.08;37.46;100032.44;6306246;20;2747194;-60
2023/06/04 10:36:44;;;;;;;;;0.33;0.33;;;;;22.94;36.74;100033.91;6317879;20;2735733;-59
2023/06/04 10:39:13;;;;;;;;;3.20;2.20;;;;;22.72;35.95;100029.03;6342549;20;2741977;-59
2023/06/04 10:41:42;;;;;;;;;4.20;4.00;;;;;22.72;36.71;100029.03;6340933;20;2746126;-60
2023/06/04 10:44:12;;;;;;;;;6.00;3.67;;;;;22.74;37.50;100022.38;6282611;20;2740971;-60
2023/06/04 10:46:41;;;;;;;;;2.00;2.00;;;;;22.81;35.66;100024.47;6316045;20;2743080;-60
2023/06/04 10:49:14;;;;;;;;;4.00;3.00;;;;;22.92;36.48;100030.47;6319871;20;2742958;-60
2023/06/04 10:51:43;;;;;;;;;2.67;2.67;;;;;22.88;34.88;100023.63;6316458;20;2751434;-60
2023/06/04 10:54:26;;;;;;;;;1.67;1.67;;;;;23.05;35.94;100026.44;6317378;20;2748234;-60
2023/06/04 10:56:55;;;;;;;;;2.20;2.20;;;;;22.99;36.11;100026.09;6340551;20;2750686;-60
2023/06/04 10:59:24;;;;;;;;;54.50;41.50;;;;;23.37;35.45;100023.78;6309645;20;1923256;-60
2023/06/04 11:02:06;;;;;;;;;4.80;4.80;;;;;22.94;35.44;100025.69;6309026;20;2754435;-60
2023/06/04 11:04:38;;;;;;;;;3.00;3.00;;;;;23.12;36.83;100028.38;6304950;20;2752393;-60
2023/06/04 11:07:09;;;;;;;;;3.43;1.57;;;;;23.12;37.66;100020.16;6325225;20;3472201;-60
2023/06/04 11:09:48;;;;;;;;;1.00;1.00;;;;;23.54;35.48;100012.81;6312915;20;2731528;-61
2023/06/04 11:12:17;;;;;;;;;2.60;2.60;;;;;23.61;34.96;100011.97;6338307;20;2735711;-60
2023/06/04 11:14:59;;;;;;;;;1.00;1.00;;;;;23.57;34.05;100020.72;6341087;20;2737786;-60
2023/06/04 11:17:30;;;;;;;;;6.80;6.80;;;;;23.40;34.25;100015.22;6336065;20;2746241;-60
2023/06/04 11:20:00;;;;;;;;;3.40;3.40;;;;;23.65;35.34;100013.34;6304279;20;2750214;-60
2023/06/04 11:22:29;;;;;;;;;2.00;2.00;;;;;23.33;35.93;100022.41;6308943;20;2748202;-60
2023/06/04 11:25:01;;;;;;;;;2.00;2.00;;;;;23.16;36.17;100020.66;6307639;20;2747181;-60
2023/06/04 11:27:34;;;;;;;;;4.40;2.80;;;;;22.96;34.91;100012.75;6304784;20;2744041;-60